Time;durP1;ratioP1;P1;durP2;ratioP2;P2;SDS_P1;SDS_P2;PMS_P1;PMS_P2;Temp;Humidity;BMP_temperature;BMP_pressure;BME280_temperature;BME280_humidity;BME280_pressure;Samples;Min_cycle;Max_cycle;Signal;HPM_P1;HPM_P2
2021/04/28 00:01:02;;;;;;;1.33;1.00;;;21.60;24.10;;;;;;5084049;28;20420;-56
2021/04/28 00:03:28;;;;;;;1.70;1.05;;;21.60;24.10;;;;;;5077979;28;20036;-55
2021/04/28 00:05:54;;;;;;;1.70;1.23;;;21.60;24.10;;;;;;5084973;28;20157;-56
2021/04/28 00:08:20;;;;;;;1.92;1.10;;;21.60;24.10;;;;;;5084029;28;20063;-56
2021/04/28 00:10:46;;;;;;;1.70;1.20;;;21.60;24.10;;;;;;5065208;28;20043;-58
2021/04/28 00:13:13;;;;;;;1.63;1.13;;;21.60;24.10;;;;;;5082668;28;20337;-55
2021/04/28 00:15:43;;;;;;;1.73;1.33;;;21.60;24.20;;;;;;5081436;28;20028;-57
2021/04/28 00:18:09;;;;;;;1.60;1.10;;;21.60;24.20;;;;;;5083239;28;20047;-57
2021/04/28 00:20:39;;;;;;;1.88;1.20;;;21.60;24.20;;;;;;5083045;28;20029;-56
2021/04/28 00:23:06;;;;;;;1.13;0.75;;;21.50;24.10;;;;;;5086619;28;20039;-53
2021/04/28 00:25:32;;;;;;;2.38;1.20;;;21.60;24.20;;;;;;5086625;28;20020;-57
2021/04/28 00:27:58;;;;;;;1.15;0.93;;;21.50;24.10;;;;;;5084924;28;20024;-54
2021/04/28 00:30:25;;;;;;;1.20;1.10;;;21.50;24.10;;;;;;5067744;28;20073;-54
2021/04/28 00:32:51;;;;;;;1.52;0.90;;;21.50;24.20;;;;;;5083542;28;20033;-59
2021/04/28 00:35:19;;;;;;;1.67;1.10;;;21.50;24.20;;;;;;5085242;28;20394;-57
2021/04/28 00:37:45;;;;;;;1.60;1.10;;;21.50;24.20;;;;;;5085188;28;20353;-53
2021/04/28 00:40:16;;;;;;;1.75;1.00;;;21.50;24.20;;;;;;5069744;28;20059;-59
2021/04/28 00:42:43;;;;;;;1.33;1.00;;;21.50;24.20;;;;;;5081586;28;20031;-55
2021/04/28 00:45:11;;;;;;;2.53;0.77;;;21.50;24.20;;;;;;5061274;28;20016;-54
2021/04/28 00:47:37;;;;;;;1.60;1.08;;;21.50;24.20;;;;;;5068382;28;20459;-54
2021/04/28 00:50:05;;;;;;;0.98;0.88;;;21.50;24.20;;;;;;5071344;28;20405;-52
2021/04/28 00:52:31;;;;;;;1.42;1.00;;;21.40;24.20;;;;;;5067318;28;20431;-58
2021/04/28 00:54:58;;;;;;;1.40;0.90;;;21.40;24.20;;;;;;5067436;28;20809;-55
2021/04/28 00:57:24;;;;;;;1.42;0.90;;;21.50;24.20;;;;;;5084373;28;20111;-54
2021/04/28 00:59:51;;;;;;;1.63;0.80;;;21.40;24.20;;;;;;5087085;28;20107;-54
2021/04/28 01:02:17;;;;;;;1.08;0.80;;;21.40;24.20;;;;;;5023479;28;20044;-58
2021/04/28 01:04:43;;;;;;;2.55;1.10;;;21.50;24.20;;;;;;5012998;28;20049;-53
2021/04/28 01:07:10;;;;;;;1.25;0.82;;;21.50;24.20;;;;;;5028104;28;20095;-58
2021/04/28 01:09:38;;;;;;;1.10;0.90;;;21.50;24.10;;;;;;5021379;28;20033;-53
2021/04/28 01:12:07;;;;;;;1.17;1.00;;;21.60;24.10;;;;;;5006912;28;20041;-56
2021/04/28 01:14:33;;;;;;;2.20;1.10;;;21.60;24.10;;;;;;5013196;28;20026;-53
2021/04/28 01:17:03;;;;;;;1.35;0.90;;;21.60;24.10;;;;;;5020010;28;20445;-60
2021/04/28 01:19:30;;;;;;;1.25;0.98;;;21.60;24.10;;;;;;5009330;28;20467;-57
2021/04/28 01:21:57;;;;;;;1.52;1.10;;;21.60;24.10;;;;;;5013917;28;20037;-51
2021/04/28 01:24:23;;;;;;;1.33;1.08;;;21.70;24.20;;;;;;5013073;28;20056;-55
2021/04/28 01:26:53;;;;;;;2.45;1.10;;;21.70;24.20;;;;;;5015945;28;20124;-57
2021/04/28 01:29:24;;;;;;;1.10;1.00;;;21.70;24.10;;;;;;5002698;28;20025;-55
2021/04/28 01:31:53;;;;;;;1.85;0.90;;;21.70;24.10;;;;;;5014723;28;20040;-54
2021/04/28 01:34:20;;;;;;;1.48;1.00;;;21.70;24.60;;;;;;5079501;28;20386;-51
2021/04/28 01:36:47;;;;;;;1.77;1.10;;;21.70;24.10;;;;;;5080299;28;20033;-56
2021/04/28 01:39:17;;;;;;;1.67;0.70;;;21.70;24.00;;;;;;5062604;28;20353;-57
2021/04/28 01:41:45;;;;;;;1.20;1.00;;;21.70;24.00;;;;;;5067813;28;20415;-55
2021/04/28 01:44:17;;;;;;;0.95;0.82;;;21.70;24.00;;;;;;5078444;28;20048;-56
2021/04/28 01:46:44;;;;;;;1.73;0.90;;;21.80;24.00;;;;;;5082505;28;20056;-58
2021/04/28 01:49:11;;;;;;;1.10;0.95;;;21.80;24.00;;;;;;5082246;28;20062;-55
2021/04/28 01:51:40;;;;;;;1.05;0.80;;;21.80;24.00;;;;;;5063576;28;20028;-56
2021/04/28 01:54:16;;;;;;;1.20;0.88;;;21.80;24.00;;;;;;5063566;28;20032;-55
2021/04/28 01:56:46;;;;;;;1.27;0.82;;;21.80;23.90;;;;;;5065689;28;20052;-53
2021/04/28 01:59:27;;;;;;;;;;;21.80;23.90;;;;;;5064937;28;20060;-55
2021/04/28 02:02:07;;;;;;;0.80;0.70;;;21.80;23.90;;;;;;5082646;28;19913;-53
2021/04/28 02:04:39;;;;;;;1.33;0.90;;;21.80;23.90;;;;;;5064917;28;20136;-57
2021/04/28 02:07:05;;;;;;;1.20;0.90;;;21.70;23.90;;;;;;5083789;28;20289;-56
2021/04/28 02:09:33;;;;;;;1.33;0.85;;;21.80;23.90;;;;;;5063425;28;20416;-56
2021/04/28 02:11:59;;;;;;;1.25;0.93;;;21.80;23.90;;;;;;5083008;28;20028;-57
2021/04/28 02:14:31;;;;;;;1.15;0.98;;;21.80;23.90;;;;;;5065294;28;20020;-57
2021/04/28 02:17:06;;;;;;;1.33;1.13;;;21.80;23.90;;;;;;5064509;28;20020;-57
2021/04/28 02:19:37;;;;;;;1.00;0.85;;;21.80;23.90;;;;;;5082998;28;20632;-56
2021/04/28 02:22:03;;;;;;;1.10;0.98;;;21.80;23.90;;;;;;5081727;28;20123;-53
2021/04/28 02:24:42;;;;;;;1.33;0.77;;;21.80;23.90;;;;;;5061597;28;20044;-56
2021/04/28 02:27:09;;;;;;;1.42;0.80;;;21.80;23.90;;;;;;5056825;28;20113;-59
2021/04/28 02:29:36;;;;;;;1.30;0.88;;;21.80;23.90;;;;;;5057467;28;20439;-55
2021/04/28 02:32:04;;;;;;;1.23;0.90;;;21.80;23.90;;;;;;5088336;28;20024;-57
2021/04/28 02:34:49;;;;;;;1.27;0.85;;;21.80;23.90;;;;;;5057117;28;20474;-52
2021/04/28 02:37:24;;;;;;;1.17;0.85;;;21.80;23.90;;;;;;5053525;28;20047;-57
2021/04/28 02:40:13;;;;;;;1.25;0.85;;;21.80;23.90;;;;;;5077882;28;20136;-57
2021/04/28 02:42:45;;;;;;;1.63;0.95;;;21.80;23.90;;;;;;5077035;28;20447;-53
2021/04/28 02:45:15;;;;;;;1.20;1.00;;;21.80;23.90;;;;;;5074469;28;20092;-57
2021/04/28 02:47:43;;;;;;;1.25;0.90;;;21.80;23.90;;;;;;5091132;28;20036;-55
2021/04/28 02:50:11;;;;;;;1.50;0.70;;;21.80;23.90;;;;;;5056817;28;20024;-54
2021/04/28 02:52:59;;;;;;;0.90;0.70;;;21.80;23.90;;;;;;5061405;28;20040;-59
2021/04/28 02:55:25;;;;;;;1.30;0.85;;;21.80;23.90;;;;;;5086157;28;20024;-58
2021/04/28 02:57:57;;;;;;;1.27;0.90;;;21.80;23.90;;;;;;5050977;28;20037;-57
2021/04/28 03:00:25;;;;;;;2.28;1.00;;;21.80;23.90;;;;;;5056731;28;20336;-56
2021/04/28 03:02:53;;;;;;;1.33;0.90;;;21.80;23.90;;;;;;5066941;28;20032;-55
2021/04/28 03:05:20;;;;;;;1.23;0.80;;;21.80;23.90;;;;;;5075194;28;20016;-54
2021/04/28 03:08:05;;;;;;;1.25;0.93;;;21.80;23.90;;;;;;5061505;28;20651;-55
2021/04/28 03:10:31;;;;;;;0.68;0.68;;;21.80;23.90;;;;;;5056195;28;20138;-55
2021/04/28 03:12:59;;;;;;;1.42;0.75;;;21.80;23.90;;;;;;5071675;28;20320;-60
2021/04/28 03:15:26;;;;;;;0.82;0.68;;;21.80;23.90;;;;;;5066300;28;20035;-54
2021/04/28 03:17:54;;;;;;;1.90;1.00;;;21.80;23.90;;;;;;5076452;28;20129;-57
2021/04/28 03:20:28;;;;;;;1.30;0.88;;;21.80;23.90;;;;;;5083557;28;20021;-55
2021/04/28 03:22:55;;;;;;;1.17;0.88;;;21.80;23.90;;;;;;5076380;28;20032;-58
2021/04/28 03:25:21;;;;;;;1.45;0.90;;;21.80;23.90;;;;;;5065962;28;20028;-54
2021/04/28 03:27:51;;;;;;;1.33;0.90;;;21.80;23.90;;;;;;5055049;28;20028;-51
2021/04/28 03:30:19;;;;;;;1.58;1.00;;;21.70;23.80;;;;;;5065552;28;20019;-58
2021/04/28 03:32:46;;;;;;;1.42;0.95;;;21.70;23.80;;;;;;5075470;28;20023;-53
2021/04/28 03:35:40;;;;;;;0.60;0.60;;;21.70;23.80;;;;;;5075554;28;20032;-56
2021/04/28 03:38:29;;;;;;;1.88;1.00;;;21.70;23.80;;;;;;5055928;28;20468;-55
2021/04/28 03:40:56;;;;;;;1.38;0.90;;;21.80;23.90;;;;;;5051661;28;20020;-56
2021/04/28 03:43:22;;;;;;;1.13;0.80;;;21.70;23.80;;;;;;5073655;28;20132;-55
2021/04/28 03:45:51;;;;;;;1.27;0.80;;;21.70;23.80;;;;;;5066263;28;20333;-53
2021/04/28 03:48:26;;;;;;;1.17;0.80;;;21.80;23.90;;;;;;5058854;28;20028;-57
2021/04/28 03:50:52;;;;;;;1.40;0.90;;;21.70;23.80;;;;;;5079498;28;20120;-56
2021/04/28 03:53:18;;;;;;;1.35;1.00;;;21.70;23.80;;;;;;5044776;28;20028;-55
2021/04/28 03:55:50;;;;;;;1.00;0.70;;;21.70;23.80;;;;;;5090148;28;20111;-56
2021/04/28 03:58:16;;;;;;;0.82;0.73;;;21.70;23.80;;;;;;5097191;28;20110;-57
2021/04/28 04:00:42;;;;;;;1.00;0.90;;;21.70;23.90;;;;;;5065483;28;20037;-56
2021/04/28 04:03:31;;;;;;;1.17;0.75;;;21.70;23.80;;;;;;5059657;28;20044;-52
2021/04/28 04:06:15;;;;;;;1.63;0.82;;;21.70;23.80;;;;;;5073740;28;20031;-56
2021/04/28 04:09:06;;;;;;;1.23;0.80;;;21.70;23.90;;;;;;5069019;28;20043;-54
2021/04/28 04:11:34;;;;;;;1.48;0.85;;;21.70;23.90;;;;;;5075428;28;20120;-56
2021/04/28 04:14:01;;;;;;;1.27;0.85;;;21.70;23.90;;;;;;5079804;28;20184;-55
2021/04/28 04:16:27;;;;;;;2.22;0.93;;;21.70;23.80;;;;;;5078846;28;20133;-52
2021/04/28 04:18:53;;;;;;;1.15;0.90;;;21.70;23.80;;;;;;5059719;28;20024;-56
2021/04/28 04:21:19;;;;;;;0.90;0.80;;;21.70;23.90;;;;;;5065175;28;20017;-55
2021/04/28 04:23:55;;;;;;;1.23;0.80;;;21.70;23.90;;;;;;5077536;28;20135;-59
2021/04/28 04:26:42;;;;;;;1.52;1.00;;;21.70;23.90;;;;;;5063755;28;20034;-58
2021/04/28 04:29:31;;;;;;;0.95;0.73;;;21.70;23.90;;;;;;5040215;28;20045;-55
2021/04/28 04:32:36;;;;;;;1.33;1.00;;;21.70;23.90;;;;;;5086631;28;20036;-59
2021/04/28 04:35:21;;;;;;;1.50;0.95;;;21.70;23.90;;;;;;5085418;28;20359;-57
2021/04/28 04:38:05;;;;;;;0.98;0.75;;;21.70;23.90;;;;;;5069274;28;20125;-53
2021/04/28 04:40:38;;;;;;;1.58;1.05;;;21.60;23.80;;;;;;5078114;28;20032;-54
2021/04/28 04:43:24;;;;;;;1.23;0.90;;;21.60;23.80;;;;;;5089526;28;20052;-56
2021/04/28 04:46:02;;;;;;;1.35;1.08;;;21.60;23.80;;;;;;5076668;28;20127;-56
2021/04/28 04:48:28;;;;;;;0.95;0.77;;;21.60;23.80;;;;;;5090500;28;20033;-57
2021/04/28 04:50:54;;;;;;;1.02;0.80;;;21.70;23.90;;;;;;5084328;28;20074;-58
2021/04/28 04:53:20;;;;;;;1.05;0.90;;;21.60;23.90;;;;;;5090866;28;20028;-56
2021/04/28 04:55:46;;;;;;;1.58;0.80;;;21.70;23.90;;;;;;5096308;28;20451;-54
2021/04/28 04:58:11;;;;;;;0.85;0.75;;;21.70;23.90;;;;;;5095583;28;20478;-53
2021/04/28 05:00:37;;;;;;;1.42;1.00;;;21.60;23.90;;;;;;5097023;28;20059;-56
2021/04/28 05:03:03;;;;;;;1.35;0.82;;;21.70;23.90;;;;;;5093851;28;20033;-50
2021/04/28 05:05:29;;;;;;;0.85;0.70;;;21.60;23.90;;;;;;5096957;28;20316;-55
2021/04/28 05:07:55;;;;;;;1.95;0.90;;;21.70;23.90;;;;;;5084540;28;20028;-53
2021/04/28 05:10:21;;;;;;;0.90;0.80;;;21.60;23.90;;;;;;5093223;28;20335;-52
2021/04/28 05:12:47;;;;;;;1.45;0.90;;;21.60;23.90;;;;;;5091411;28;20028;-59
2021/04/28 05:15:15;;;;;;;1.30;0.80;;;21.60;23.90;;;;;;5094471;28;20059;-53
2021/04/28 05:17:41;;;;;;;1.10;0.88;;;21.60;23.90;;;;;;5096881;28;20039;-54
2021/04/28 05:20:08;;;;;;;1.38;0.85;;;21.60;23.80;;;;;;5089942;28;20108;-58
2021/04/28 05:22:34;;;;;;;1.73;0.90;;;21.60;23.80;;;;;;5067276;28;20024;-56
2021/04/28 05:25:25;;;;;;;1.92;1.10;;;21.60;23.90;;;;;;5080694;28;20048;-56
2021/04/28 05:27:50;;;;;;;1.38;0.80;;;21.60;23.90;;;;;;5065812;28;20024;-51
2021/04/28 05:30:17;;;;;;;2.00;1.00;;;21.60;23.90;;;;;;5094447;28;20038;-54
2021/04/28 05:32:43;;;;;;;0.90;0.70;;;21.70;24.00;;;;;;5080341;28;20047;-51
2021/04/28 05:35:10;;;;;;;1.95;0.95;;;21.70;24.00;;;;;;5095447;28;20024;-53
2021/04/28 05:37:37;;;;;;;0.93;0.85;;;21.70;24.00;;;;;;5081717;28;20048;-56
2021/04/28 05:40:05;;;;;;;1.88;0.85;;;21.70;24.00;;;;;;5082872;28;20118;-58
2021/04/28 05:42:31;;;;;;;1.45;0.82;;;21.70;24.00;;;;;;5083676;28;20093;-55
2021/04/28 05:45:00;;;;;;;1.23;0.70;;;21.70;24.00;;;;;;5067304;28;20037;-55
2021/04/28 05:47:30;;;;;;;1.85;1.13;;;21.70;24.00;;;;;;5078943;28;20028;-53
2021/04/28 05:49:56;;;;;;;1.23;0.90;;;21.70;24.00;;;;;;5075834;28;20031;-52
2021/04/28 05:52:22;;;;;;;1.15;1.00;;;21.70;24.00;;;;;;5072714;28;20028;-57
2021/04/28 05:54:48;;;;;;;1.40;0.85;;;21.70;23.90;;;;;;5094303;28;20027;-55
2021/04/28 05:57:17;;;;;;;1.45;0.90;;;21.70;23.90;;;;;;5092473;28;20106;-55
2021/04/28 05:59:46;;;;;;;1.05;0.73;;;21.70;23.90;;;;;;5069802;28;20044;-57
2021/04/28 06:02:12;;;;;;;1.38;0.85;;;21.70;23.90;;;;;;5075636;28;20024;-52
2021/04/28 06:04:39;;;;;;;1.23;0.82;;;21.70;23.80;;;;;;5074956;28;20048;-56
2021/04/28 06:07:05;;;;;;;1.83;0.95;;;21.70;23.80;;;;;;5088246;28;20067;-55
2021/04/28 06:09:31;;;;;;;1.27;0.80;;;21.70;23.80;;;;;;5079914;28;20025;-55
2021/04/28 06:11:57;;;;;;;1.50;0.88;;;21.70;23.80;;;;;;5075445;28;20389;-57
2021/04/28 06:14:23;;;;;;;1.92;0.95;;;21.70;23.70;;;;;;5065508;28;20104;-54
2021/04/28 06:16:49;;;;;;;1.50;0.90;;;21.70;23.70;;;;;;5090438;28;20024;-56
2021/04/28 06:19:15;;;;;;;1.25;1.08;;;21.70;23.70;;;;;;5084870;28;20065;-57
2021/04/28 06:21:41;;;;;;;1.08;0.90;;;21.70;23.70;;;;;;5076032;28;20035;-57
2021/04/28 06:24:07;;;;;;;1.52;0.90;;;21.70;23.70;;;;;;5085972;28;20071;-56
2021/04/28 06:26:34;;;;;;;1.33;0.70;;;21.60;23.70;;;;;;5075592;28;20033;-54
2021/04/28 06:29:00;;;;;;;1.65;1.00;;;21.60;23.80;;;;;;5075989;28;20043;-51
2021/04/28 06:31:25;;;;;;;1.45;1.10;;;21.60;24.00;;;;;;5091602;28;20024;-54
2021/04/28 06:33:51;;;;;;;1.13;0.90;;;21.60;24.10;;;;;;5083305;28;20024;-55
2021/04/28 06:36:17;;;;;;;1.27;0.77;;;21.50;24.00;;;;;;5077738;28;20039;-59
2021/04/28 06:38:44;;;;;;;1.80;0.98;;;21.50;24.00;;;;;;5083966;28;20032;-51
2021/04/28 06:41:09;;;;;;;1.27;0.93;;;21.50;24.10;;;;;;5060580;28;20115;-56
2021/04/28 06:43:35;;;;;;;1.48;0.98;;;21.40;24.00;;;;;;5080850;28;20135;-54
2021/04/28 06:46:01;;;;;;;1.10;0.90;;;21.50;24.10;;;;;;5080080;28;20024;-53
2021/04/28 06:48:27;;;;;;;1.98;1.13;;;21.40;24.10;;;;;;5084986;28;20084;-59
2021/04/28 06:50:53;;;;;;;2.17;0.90;;;21.40;24.10;;;;;;5087793;28;20459;-52
2021/04/28 06:53:22;;;;;;;1.33;1.00;;;21.40;24.10;;;;;;5075227;28;20309;-59
2021/04/28 06:55:48;;;;;;;1.85;1.00;;;21.40;24.20;;;;;;5081011;28;20383;-58
2021/04/28 06:58:14;;;;;;;1.38;1.05;;;21.40;24.10;;;;;;5078471;28;20035;-53
2021/04/28 07:00:40;;;;;;;1.50;1.15;;;21.30;24.10;;;;;;5075338;28;20032;-59
2021/04/28 07:03:05;;;;;;;2.20;0.95;;;21.30;24.20;;;;;;5075409;28;20040;-56
2021/04/28 07:05:32;;;;;;;2.03;1.30;;;21.40;24.30;;;;;;5078472;28;20110;-57
2021/04/28 07:07:57;;;;;;;1.10;0.90;;;21.30;24.30;;;;;;5091826;28;20044;-57
2021/04/28 07:10:24;;;;;;;1.55;0.95;;;21.30;24.40;;;;;;5056879;28;20099;-60
2021/04/28 07:12:50;;;;;;;2.75;0.90;;;21.30;24.40;;;;;;5075104;28;20159;-60
2021/04/28 07:15:16;;;;;;;1.25;0.95;;;21.30;24.40;;;;;;5087599;28;20046;-59
2021/04/28 07:17:45;;;;;;;1.33;0.93;;;21.30;24.40;;;;;;5094842;28;20118;-57
2021/04/28 07:20:12;;;;;;;1.70;1.00;;;21.30;24.40;;;;;;5079689;28;20051;-59
2021/04/28 07:22:38;;;;;;;1.48;1.00;;;21.30;24.40;;;;;;5094456;28;20051;-58
2021/04/28 07:25:05;;;;;;;2.40;1.33;;;21.20;24.40;;;;;;5080047;28;20044;-59
2021/04/28 07:27:30;;;;;;;1.63;0.90;;;21.30;24.40;;;;;;5074408;28;20043;-60
2021/04/28 07:29:56;;;;;;;1.25;1.00;;;21.20;24.30;;;;;;5080243;28;20023;-56
2021/04/28 07:32:23;;;;;;;1.10;1.00;;;21.20;24.30;;;;;;5081930;28;20028;-59
2021/04/28 07:34:49;;;;;;;2.20;0.90;;;21.30;24.40;;;;;;5076755;28;20041;-63
2021/04/28 07:37:15;;;;;;;1.63;1.00;;;21.30;24.50;;;;;;5073846;28;20028;-53
2021/04/28 07:39:41;;;;;;;1.08;0.88;;;21.30;24.50;;;;;;5076184;28;20032;-54
2021/04/28 07:42:07;;;;;;;1.10;0.98;;;21.30;24.50;;;;;;5070710;28;20024;-50
2021/04/28 07:44:33;;;;;;;1.33;0.90;;;21.30;24.50;;;;;;5059703;28;20455;-54
2021/04/28 07:47:00;;;;;;;1.35;0.88;;;21.40;24.60;;;;;;5094252;28;20032;-55
2021/04/28 07:49:27;;;;;;;1.73;1.00;;;21.40;24.60;;;;;;5093822;28;20024;-57
2021/04/28 07:51:53;;;;;;;0.60;0.60;;;21.50;24.60;;;;;;5082570;28;20032;-61
2021/04/28 07:54:21;;;;;;;1.13;0.80;;;21.50;24.50;;;;;;5083168;28;20105;-58
2021/04/28 07:56:47;;;;;;;1.10;0.90;;;21.60;24.50;;;;;;5094222;28;20478;-63
2021/04/28 07:59:14;;;;;;;1.27;0.70;;;21.70;24.50;;;;;;5079867;28;20407;-63
2021/04/28 08:01:40;;;;;;;1.20;0.68;;;21.70;24.50;;;;;;5056861;28;20036;-60
2021/04/28 08:04:06;;;;;;;0.77;0.77;;;21.70;24.50;;;;;;5094220;28;20126;-59
2021/04/28 08:06:33;;;;;;;2.20;0.95;;;21.80;24.50;;;;;;5092201;28;20028;-62
2021/04/28 08:08:59;;;;;;;1.20;0.90;;;21.80;24.50;;;;;;5078370;28;20036;-60
2021/04/28 08:11:26;;;;;;;0.95;0.88;;;21.90;24.50;;;;;;5084000;28;20044;-59
2021/04/28 08:13:52;;;;;;;1.35;0.95;;;21.90;24.50;;;;;;5076160;28;20028;-61
2021/04/28 08:16:19;;;;;;;0.75;0.65;;;22.00;24.50;;;;;;5093418;28;20112;-60
2021/04/28 08:18:46;;;;;;;1.02;0.80;;;22.00;24.50;;;;;;5093894;28;20073;-60
2021/04/28 08:21:12;;;;;;;2.20;1.15;;;22.00;24.50;;;;;;5062812;28;20041;-61
2021/04/28 08:23:42;;;;;;;1.15;0.77;;;22.00;24.40;;;;;;5077631;28;20066;-61
2021/04/28 08:26:12;;;;;;;1.50;1.00;;;22.10;24.40;;;;;;5091899;28;20461;-59
2021/04/28 08:28:44;;;;;;;0.90;0.63;;;22.00;24.30;;;;;;5088645;28;20102;-56
2021/04/28 08:31:12;;;;;;;1.45;0.93;;;22.10;24.30;;;;;;5070358;28;20068;-61
2021/04/28 08:33:39;;;;;;;1.13;0.90;;;22.10;24.20;;;;;;5070558;28;20056;-61
2021/04/28 08:36:06;;;;;;;1.13;0.73;;;22.10;24.20;;;;;;5053842;28;20029;-60
2021/04/28 08:38:33;;;;;;;1.35;0.85;;;22.10;24.20;;;;;;5040632;28;20650;-59
2021/04/28 08:40:59;;;;;;;5.75;1.20;;;22.10;24.10;;;;;;5087173;28;20051;-60
2021/04/28 08:43:26;;;;;;;1.13;0.88;;;22.10;24.10;;;;;;5093328;28;20043;-61
2021/04/28 08:45:53;;;;;;;1.80;0.90;;;22.10;24.10;;;;;;5059275;28;20035;-59
2021/04/28 08:48:19;;;;;;;0.70;0.70;;;22.10;24.00;;;;;;5079533;28;20046;-60
2021/04/28 08:50:47;;;;;;;1.63;0.93;;;22.10;24.00;;;;;;5096268;28;20036;-56
2021/04/28 08:53:17;;;;;;;0.82;0.73;;;22.20;24.00;;;;;;5095517;28;20028;-61
2021/04/28 08:55:44;;;;;;;0.98;0.75;;;22.10;24.00;;;;;;5097229;28;20512;-61
2021/04/28 08:58:10;;;;;;;1.38;0.82;;;22.10;23.90;;;;;;5080990;28;20036;-59
2021/04/28 09:00:36;;;;;;;1.38;0.90;;;22.10;23.90;;;;;;5076607;28;20043;-59
2021/04/28 09:03:03;;;;;;;1.55;0.95;;;22.20;23.90;;;;;;5079144;28;20028;-60
2021/04/28 09:05:31;;;;;;;1.35;0.80;;;22.20;23.90;;;;;;5076735;28;20360;-58
2021/04/28 09:07:57;;;;;;;1.13;0.90;;;22.20;23.90;;;;;;5082201;28;20083;-55
2021/04/28 09:10:26;;;;;;;1.13;0.80;;;22.20;23.90;;;;;;5078128;28;20063;-60
2021/04/28 09:12:58;;;;;;;3.33;1.02;;;22.20;23.90;;;;;;5059515;28;20034;-57
2021/04/28 09:15:34;;;;;;;0.80;0.73;;;22.20;23.90;;;;;;5080645;28;20036;-57
2021/04/28 09:18:01;;;;;;;1.25;0.70;;;22.20;24.00;;;;;;5075437;28;20111;-53
2021/04/28 09:20:55;;;;;;;1.00;0.70;;;22.20;24.00;;;;;;5095558;28;20035;-55
2021/04/28 09:23:40;;;;;;;1.90;0.90;;;22.20;23.90;;;;;;5051444;28;20555;-55
2021/04/28 09:26:25;;;;;;;1.17;0.90;;;22.20;24.00;;;;;;5094037;28;20051;-57
2021/04/28 09:29:15;;;;;;;1.30;0.85;;;22.20;23.90;;;;;;5069378;28;20504;-54
2021/04/28 09:31:56;;;;;;;1.00;0.80;;;22.20;23.90;;;;;;5077701;28;20444;-54
2021/04/28 09:34:26;;;;;;;0.80;0.63;;;22.20;23.90;;;;;;5089272;28;20034;-57
2021/04/28 09:37:04;;;;;;;0.90;0.70;;;22.20;23.90;;;;;;5091310;28;20347;-51
2021/04/28 09:39:31;;;;;;;1.52;0.82;;;22.20;23.90;;;;;;5089470;28;20443;-55
2021/04/28 09:41:57;;;;;;;0.93;0.77;;;22.20;23.90;;;;;;5092878;28;20064;-56
2021/04/28 09:44:29;;;;;;;1.33;0.93;;;22.20;23.90;;;;;;5094591;28;20131;-53
2021/04/28 09:47:01;;;;;;;1.88;1.00;;;22.30;24.00;;;;;;5089136;28;20020;-57
2021/04/28 09:49:42;;;;;;;1.38;0.90;;;22.20;23.90;;;;;;5091382;28;20023;-56
2021/04/28 09:52:08;;;;;;;0.98;0.82;;;22.20;23.90;;;;;;5064038;28;20066;-55
2021/04/28 09:54:34;;;;;;;1.63;1.02;;;22.20;23.90;;;;;;5075143;28;20025;-56
2021/04/28 09:57:01;;;;;;;1.20;1.08;;;22.30;24.00;;;;;;5079904;28;20078;-56
2021/04/28 09:59:50;;;;;;;1.63;0.90;;;22.30;24.00;;;;;;5085762;28;20093;-55
2021/04/28 10:02:31;;;;;;;1.00;0.80;;;22.30;23.90;;;;;;5080489;28;20029;-57
2021/04/28 10:05:17;;;;;;;0.70;0.70;;;22.30;24.00;;;;;;5095447;28;20055;-51
2021/04/28 10:07:43;;;;;;;1.45;0.77;;;22.30;24.00;;;;;;5064746;28;20045;-52
2021/04/28 10:10:10;;;;;;;1.23;0.90;;;22.20;23.90;;;;;;5055444;28;20322;-53
2021/04/28 10:12:36;;;;;;;1.55;1.02;;;22.20;24.50;;;;;;5052916;28;20047;-54
2021/04/28 10:15:04;;;;;;;1.00;0.95;;;22.30;24.00;;;;;;5075115;28;20351;-51
2021/04/28 10:17:31;;;;;;;1.95;1.17;;;22.20;24.00;;;;;;5062663;28;20029;-60
2021/04/28 10:19:58;;;;;;;1.35;1.00;;;22.30;24.00;;;;;;5055292;28;20029;-54
2021/04/28 10:22:25;;;;;;;0.88;0.80;;;22.30;24.00;;;;;;5065355;28;20116;-53
2021/04/28 10:24:53;;;;;;;1.33;0.90;;;22.30;24.00;;;;;;5055179;28;20450;-52
2021/04/28 10:27:20;;;;;;;0.93;0.77;;;22.30;24.00;;;;;;5071888;28;20032;-50
2021/04/28 10:29:48;;;;;;;1.00;0.80;;;22.30;24.00;;;;;;5092014;28;20434;-55
2021/04/28 10:32:16;;;;;;;0.63;0.63;;;22.30;24.00;;;;;;5079566;28;20033;-58
2021/04/28 10:34:56;;;;;;;1.00;0.77;;;22.20;24.10;;;;;;5074998;28;20032;-54
2021/04/28 10:37:25;;;;;;;0.90;0.80;;;22.20;24.30;;;;;;5072245;28;20036;-53
2021/04/28 10:39:51;;;;;;;3.33;0.80;;;22.20;24.50;;;;;;5083461;28;20043;-58
2021/04/28 10:42:43;;;;;;;1.60;0.80;;;22.30;24.70;;;;;;5073806;28;20036;-52
2021/04/28 10:45:36;;;;;;;1.08;0.68;;;22.30;24.80;;;;;;5079537;28;20041;-56
2021/04/28 10:48:03;;;;;;;1.05;0.90;;;22.30;24.90;;;;;;5066122;28;20048;-55
2021/04/28 10:50:45;;;;;;;1.88;0.88;;;22.30;24.90;;;;;;5073115;28;20024;-55
2021/04/28 10:53:20;;;;;;;0.80;0.80;;;22.40;25.00;;;;;;5070962;28;20043;-58
2021/04/28 10:55:56;;;;;;;1.75;1.13;;;22.40;25.00;;;;;;5065091;28;20024;-57
2021/04/28 10:58:34;;;;;;;1.15;0.80;;;22.40;25.10;;;;;;5063513;28;20060;-59
2021/04/28 11:01:00;;;;;;;1.58;1.00;;;22.50;25.20;;;;;;5063798;28;20068;-52
2021/04/28 11:03:41;;;;;;;1.10;0.90;;;22.50;25.30;;;;;;5063557;28;20076;-56
2021/04/28 11:09:06;;;;;;;1.25;0.90;;;22.60;25.50;;;;;;5068969;28;20040;-55
2021/04/28 11:11:39;;;;;;;1.35;0.90;;;22.70;25.60;;;;;;5059982;28;20017;-60
2021/04/28 11:14:30;;;;;;;1.63;1.17;;;22.70;25.60;;;;;;5063283;28;20423;-60
2021/04/28 11:17:19;;;;;;;2.15;1.00;;;22.80;25.70;;;;;;5063758;28;20024;-61
2021/04/28 11:19:50;;;;;;;1.10;0.90;;;22.80;25.70;;;;;;5042131;28;20083;-57
2021/04/28 11:22:27;;;;;;;1.95;0.82;;;22.90;25.70;;;;;;5067687;28;20098;-49
2021/04/28 11:24:53;;;;;;;1.77;1.27;;;22.90;25.80;;;;;;5063466;28;20069;-48
2021/04/28 11:27:37;;;;;;;1.20;1.00;;;23.00;25.60;;;;;;5073381;28;20071;-52
2021/04/28 11:30:03;;;;;;;1.08;0.85;;;23.00;25.60;;;;;;5062592;28;20033;-50
2021/04/28 11:32:30;;;;;;;0.90;0.90;;;23.00;25.60;;;;;;5042870;28;20095;-58
2021/04/28 11:34:56;;;;;;;1.65;1.05;;;23.10;25.60;;;;;;5065587;28;20112;-57
2021/04/28 11:37:22;;;;;;;1.30;0.85;;;23.10;25.60;;;;;;5066942;28;20536;-53
2021/04/28 11:39:48;;;;;;;1.02;0.90;;;23.10;25.50;;;;;;5069317;28;20029;-52
2021/04/28 11:42:20;;;;;;;0.75;0.75;;;23.20;25.50;;;;;;5059795;28;20444;-57
2021/04/28 11:44:49;;;;;;;0.88;0.80;;;23.20;25.40;;;;;;5036929;28;20028;-54
2021/04/28 11:47:21;;;;;;;1.10;1.00;;;23.20;25.40;;;;;;5059083;28;20102;-55
2021/04/28 11:49:50;;;;;;;1.42;0.90;;;23.20;25.30;;;;;;5038176;28;20047;-52
2021/04/28 11:52:17;;;;;;;0.90;0.80;;;23.10;25.20;;;;;;5062634;28;20116;-57
2021/04/28 11:54:44;;;;;;;1.00;0.82;;;23.20;25.20;;;;;;5056607;28;20135;-58
2021/04/28 11:57:11;;;;;;;1.08;0.98;;;23.20;25.20;;;;;;5037143;28;20119;-54
2021/04/28 11:59:38;;;;;;;1.98;1.00;;;23.20;25.10;;;;;;5060465;28;20085;-51
2021/04/28 12:02:08;;;;;;;1.02;0.82;;;23.20;25.10;;;;;;5064202;28;20036;-56
2021/04/28 12:04:37;;;;;;;1.05;0.80;;;23.20;25.10;;;;;;5060082;28;20083;-52
2021/04/28 12:07:09;;;;;;;1.52;1.00;;;23.20;25.10;;;;;;5064412;28;20028;-55
2021/04/28 12:09:49;;;;;;;1.30;0.90;;;23.30;25.10;;;;;;5062165;28;20055;-58
2021/04/28 12:12:30;;;;;;;1.33;0.68;;;23.30;25.10;;;;;;5061095;28;20040;-55
2021/04/28 12:15:05;;;;;;;1.10;1.00;;;23.30;25.10;;;;;;5044629;28;20028;-54
2021/04/28 12:17:38;;;;;;;0.90;0.77;;;23.30;25.10;;;;;;5045588;28;20426;-55
2021/04/28 12:20:11;;;;;;;1.30;0.90;;;23.30;25.10;;;;;;5064240;28;20028;-55
2021/04/28 12:22:38;;;;;;;1.42;1.08;;;23.30;25.00;;;;;;5067276;28;20029;-51
2021/04/28 12:25:06;;;;;;;2.10;1.08;;;23.30;25.10;;;;;;5072345;28;20040;-58
2021/04/28 12:27:43;;;;;;;1.83;1.23;;;23.30;25.00;;;;;;5067502;28;20086;-56
2021/04/28 12:30:14;;;;;;;1.10;0.80;;;23.30;25.00;;;;;;5051196;28;20132;-52
2021/04/28 12:32:45;;;;;;;2.95;1.10;;;23.30;25.00;;;;;;5051374;28;20043;-59
2021/04/28 12:35:20;;;;;;;1.15;0.95;;;23.30;25.00;;;;;;5068238;28;20052;-57
2021/04/28 12:38:11;;;;;;;2.63;1.10;;;23.40;25.00;;;;;;5067670;28;20041;-55
2021/04/28 12:41:05;;;;;;;0.85;0.70;;;23.40;25.00;;;;;;5066289;28;20468;-57
2021/04/28 12:43:34;;;;;;;1.13;0.90;;;23.40;25.00;;;;;;5068445;28;20467;-48
2021/04/28 12:46:17;;;;;;;1.50;1.10;;;23.40;25.00;;;;;;5079269;28;20059;-58
2021/04/28 12:48:53;;;;;;;1.27;1.00;;;23.40;25.00;;;;;;5090360;28;20040;-55
2021/04/28 12:51:20;;;;;;;1.42;1.23;;;23.40;25.00;;;;;;5076993;28;20046;-59
2021/04/28 12:53:45;;;;;;;1.15;0.98;;;23.40;25.00;;;;;;5082016;28;20035;-59
2021/04/28 12:56:13;;;;;;;0.80;0.80;;;23.40;25.10;;;;;;5074671;28;20033;-55
2021/04/28 12:58:50;;;;;;;1.23;1.00;;;23.40;25.10;;;;;;5070710;28;20054;-51
2021/04/28 13:01:20;;;;;;;2.05;1.40;;;23.50;25.10;;;;;;5060812;28;20039;-57
2021/04/28 13:03:48;;;;;;;1.45;1.10;;;23.50;25.20;;;;;;5074484;28;20519;-58
2021/04/28 13:06:24;;;;;;;0.90;0.80;;;23.50;25.10;;;;;;5075073;28;20032;-51